Terminal Aerodrome Forecast
Issued by NWS

Home | Current Version | Previous Version | Text Only | Print | Product List | Glossary Off
Versions: 1 2 3 4 5 6 7 8 9 10 11 12 13 14 15 16 17 18 19 20

000
FTUS43 KABR 010100 AAB
TAFPIR
TAF AMD
KPIR 010156Z 0102/0124 33019G28KT P6SM VCSH SCT120 BKN200
      TEMPO 0102/0104 -SHRA SCT050 BKN120
     FM010400 32010KT P6SM SCT120 BKN200
     FM011200 VRB06KT P6SM SKC=

USA.gov is the U.S. government's official web portal to all federal, state and local government web resources and services.